createdAt,value
2022-10-02T00:03:24.589Z,9.9
2022-10-02T00:13:24.361Z,10
2022-10-02T00:23:24.372Z,9.9
2022-10-02T00:33:24.442Z,10
2022-10-02T00:53:24.462Z,10.1
2022-10-02T01:03:24.440Z,10.2
2022-10-02T01:33:24.530Z,10.2
2022-10-02T01:53:24.588Z,10.2
2022-10-02T02:03:24.557Z,10.2
2022-10-02T02:13:24.589Z,10.2
2022-10-02T02:23:24.695Z,10.2
2022-10-02T02:33:24.641Z,10.2
2022-10-02T02:43:24.639Z,10.2
2022-10-02T03:03:24.694Z,10.1
2022-10-02T03:13:24.702Z,10.2
2022-10-02T03:23:24.735Z,10.2
2022-10-02T04:03:24.856Z,10.3
2022-10-02T04:13:24.810Z,10.3
2022-10-02T04:23:24.850Z,10.3
2022-10-02T04:33:24.848Z,10.3
2022-10-02T04:43:24.871Z,10.3
2022-10-02T04:53:24.877Z,10.4
2022-10-02T05:03:24.907Z,10.4
2022-10-02T05:33:24.977Z,10.5
2022-10-02T05:53:25.052Z,10.5
2022-10-02T06:03:24.987Z,10.5
2022-10-02T06:13:25.047Z,10.6
2022-10-02T06:23:25.035Z,10.6
2022-10-02T06:33:25.144Z,10.7
2022-10-02T06:43:25.094Z,10.7
2022-10-02T06:53:25.300Z,10.8
2022-10-02T07:03:25.112Z,10.8
2022-10-02T07:13:25.196Z,10.8
2022-10-02T07:23:25.169Z,10.9
2022-10-02T07:33:29.259Z,11
2022-10-02T07:43:25.174Z,11
2022-10-02T07:53:25.236Z,11.1
2022-10-02T08:03:25.333Z,11.2
2022-10-02T08:13:25.386Z,11.2
2022-10-02T08:23:25.262Z,11.3
2022-10-02T08:33:25.310Z,11.5
2022-10-02T08:43:25.335Z,11.3
2022-10-02T08:53:25.479Z,11.2
2022-10-02T09:03:25.350Z,11.3
2022-10-02T09:13:25.586Z,11.5
2022-10-02T09:23:25.468Z,11.6
2022-10-02T09:33:25.438Z,11.6
2022-10-02T09:43:25.414Z,11.3
2022-10-02T09:53:25.435Z,11.3
2022-10-02T10:03:25.442Z,11.1
2022-10-02T10:13:25.481Z,10.9
2022-10-02T10:23:25.473Z,11
2022-10-02T10:33:25.565Z,11
2022-10-02T10:43:25.521Z,11.3
2022-10-02T11:03:25.564Z,11.4
2022-10-02T11:13:25.636Z,11.3
2022-10-02T11:23:25.609Z,11.6
2022-10-02T11:33:25.602Z,11.6
2022-10-02T11:43:25.656Z,11.5
2022-10-02T11:53:25.640Z,11.2
2022-10-02T12:03:25.724Z,11.3
2022-10-02T12:13:25.660Z,11.3
2022-10-02T12:23:25.705Z,11.7
2022-10-02T12:33:25.707Z,11.8
2022-10-02T12:43:25.753Z,11.6
2022-10-02T12:53:25.751Z,11.7
2022-10-02T13:03:25.776Z,11.6
2022-10-02T13:13:25.794Z,11.4
2022-10-02T13:23:25.824Z,11.1
2022-10-02T13:33:25.795Z,10.8
2022-10-02T13:43:25.847Z,11
2022-10-02T13:53:25.829Z,11.1
2022-10-02T14:03:25.968Z,11
2022-10-02T14:13:25.860Z,11.1
2022-10-02T14:23:25.925Z,11
2022-10-02T14:33:25.928Z,11
2022-10-02T14:43:25.939Z,11
2022-10-02T14:53:25.970Z,10.8
2022-10-02T15:03:25.985Z,10.9
2022-10-02T15:13:25.997Z,10.9
2022-10-02T15:23:26.029Z,10.8
2022-10-02T15:33:26.017Z,10.7
2022-10-02T15:43:26.041Z,10.8
2022-10-02T15:53:26.049Z,10.7
2022-10-02T16:03:26.094Z,10.7
2022-10-02T16:43:26.170Z,10.4
2022-10-02T16:53:26.143Z,10.4
2022-10-02T17:13:26.238Z,10.4
2022-10-02T17:43:26.272Z,10.4
2022-10-02T17:53:26.279Z,10.6
2022-10-02T18:13:26.314Z,10.6
2022-10-02T18:23:26.305Z,10.7
2022-10-02T18:33:26.361Z,10.5
2022-10-02T18:43:26.341Z,10.4
2022-10-02T18:53:26.399Z,10.2
2022-10-02T19:03:26.387Z,10.2
2022-10-02T19:13:26.417Z,10.3
2022-10-02T19:23:26.416Z,10.3
2022-10-02T19:33:26.469Z,10.2
2022-10-02T20:13:26.563Z,10.1
2022-10-02T21:03:26.650Z,9.9
2022-10-02T21:13:26.644Z,9.8
2022-10-02T21:23:26.681Z,9.7
2022-10-02T21:43:26.817Z,9.4
2022-10-02T22:13:26.793Z,9
2022-10-02T22:23:26.785Z,8.9
2022-10-02T22:43:26.835Z,9
2022-10-02T22:53:26.848Z,8.9
2022-10-02T23:13:26.930Z,9
2022-10-02T23:33:26.975Z,8.7
2022-10-02T23:43:26.934Z,8.6
